sensor_id;sensor_type;location;lat;lon;timestamp;pressure;altitude;pressure_sealevel;temperature;humidity
16255;BME280;8235;52.198;9.904;2023-04-08T00:01:00;101462.06;;;6.21;81.96
16255;BME280;8235;52.198;9.904;2023-04-08T00:03:27;101467.41;;;6.20;82.03
16255;BME280;8235;52.198;9.904;2023-04-08T00:05:53;101463.06;;;6.17;82.32
16255;BME280;8235;52.198;9.904;2023-04-08T00:08:20;101465.78;;;6.16;82.61
16255;BME280;8235;52.198;9.904;2023-04-08T00:10:48;101471.09;;;6.14;82.63
16255;BME280;8235;52.198;9.904;2023-04-08T00:13:14;101473.75;;;6.14;82.65
16255;BME280;8235;52.198;9.904;2023-04-08T00:15:41;101474.66;;;6.13;82.88
16255;BME280;8235;52.198;9.904;2023-04-08T00:18:07;101467.63;;;6.12;82.72
16255;BME280;8235;52.198;9.904;2023-04-08T00:20:34;101469.41;;;6.12;83.27
16255;BME280;8235;52.198;9.904;2023-04-08T00:23:01;101476.50;;;6.11;83.23
16255;BME280;8235;52.198;9.904;2023-04-08T00:25:27;101479.13;;;6.11;83.40
16255;BME280;8235;52.198;9.904;2023-04-08T00:27:55;101466.81;;;6.10;83.61
16255;BME280;8235;52.198;9.904;2023-04-08T00:30:21;101473.97;;;6.08;83.60
16255;BME280;8235;52.198;9.904;2023-04-08T00:32:48;101473.09;;;6.08;83.57
16255;BME280;8235;52.198;9.904;2023-04-08T00:35:15;101468.78;;;6.05;84.06
16255;BME280;8235;52.198;9.904;2023-04-08T00:37:41;101473.19;;;6.05;84.05
16255;BME280;8235;52.198;9.904;2023-04-08T00:40:08;101472.31;;;6.04;84.36
16255;BME280;8235;52.198;9.904;2023-04-08T00:42:35;101476.78;;;6.02;84.72
16255;BME280;8235;52.198;9.904;2023-04-08T00:45:04;101462.72;;;6.02;84.80
16255;BME280;8235;52.198;9.904;2023-04-08T00:47:30;101468.09;;;5.99;84.95
16255;BME280;8235;52.198;9.904;2023-04-08T00:49:57;101472.50;;;5.98;85.31
16255;BME280;8235;52.198;9.904;2023-04-08T00:52:23;101465.50;;;5.97;85.52
16255;BME280;8235;52.198;9.904;2023-04-08T00:54:50;101469.09;;;5.95;86.07
16255;BME280;8235;52.198;9.904;2023-04-08T00:57:17;101470.00;;;5.93;85.76
16255;BME280;8235;52.198;9.904;2023-04-08T00:59:43;101467.34;;;5.93;86.22
16255;BME280;8235;52.198;9.904;2023-04-08T01:02:14;101471.81;;;5.91;86.49
16255;BME280;8235;52.198;9.904;2023-04-08T01:04:49;101473.69;;;5.88;86.78
16255;BME280;8235;52.198;9.904;2023-04-08T01:07:21;101467.56;;;5.86;87.08
16255;BME280;8235;52.198;9.904;2023-04-08T01:09:52;101472.03;;;5.84;87.13
16255;BME280;8235;52.198;9.904;2023-04-08T01:12:25;101478.25;;;5.83;87.75
16255;BME280;8235;52.198;9.904;2023-04-08T01:14:57;101463.28;;;5.82;87.58
16255;BME280;8235;52.198;9.904;2023-04-08T01:17:28;101480.09;;;5.79;88.04
16255;BME280;8235;52.198;9.904;2023-04-08T01:19:57;101473.03;;;5.80;88.08
16255;BME280;8235;52.198;9.904;2023-04-08T01:22:31;101485.38;;;5.79;88.37
16255;BME280;8235;52.198;9.904;2023-04-08T01:25:02;101483.69;;;5.77;88.54
16255;BME280;8235;52.198;9.904;2023-04-08T01:27:32;101481.97;;;5.76;88.66
16255;BME280;8235;52.198;9.904;2023-04-08T01:30:00;101487.25;;;5.76;88.65
16255;BME280;8235;52.198;9.904;2023-04-08T01:32:28;101488.16;;;5.75;88.81
16255;BME280;8235;52.198;9.904;2023-04-08T01:34:55;101475.06;;;5.72;89.25
16255;BME280;8235;52.198;9.904;2023-04-08T01:37:23;101467.13;;;5.72;89.76
16255;BME280;8235;52.198;9.904;2023-04-08T01:39:51;101468.91;;;5.71;89.71
16255;BME280;8235;52.198;9.904;2023-04-08T01:42:21;101467.19;;;5.70;90.07
16255;BME280;8235;52.198;9.904;2023-04-08T01:44:51;101475.13;;;5.70;90.13
16255;BME280;8235;52.198;9.904;2023-04-08T01:47:18;101465.41;;;5.71;90.31
16255;BME280;8235;52.198;9.904;2023-04-08T01:49:45;101449.56;;;5.71;90.54
16255;BME280;8235;52.198;9.904;2023-04-08T01:52:13;101448.63;;;5.72;90.25
16255;BME280;8235;52.198;9.904;2023-04-08T01:54:41;101461.91;;;5.70;90.68
16255;BME280;8235;52.198;9.904;2023-04-08T01:57:11;101459.31;;;5.69;90.69
16255;BME280;8235;52.198;9.904;2023-04-08T01:59:41;101460.16;;;5.69;90.76
16255;BME280;8235;52.198;9.904;2023-04-08T02:02:09;101466.31;;;5.70;90.98
16255;BME280;8235;52.198;9.904;2023-04-08T02:04:36;101461.03;;;5.70;91.01
16255;BME280;8235;52.198;9.904;2023-04-08T02:07:03;101462.75;;;5.71;91.08
16255;BME280;8235;52.198;9.904;2023-04-08T02:09:30;101472.44;;;5.72;91.18
16255;BME280;8235;52.198;9.904;2023-04-08T02:11:56;101468.06;;;5.71;91.63
16255;BME280;8235;52.198;9.904;2023-04-08T02:14:23;101475.97;;;5.71;91.46
16255;BME280;8235;52.198;9.904;2023-04-08T02:16:53;101468.91;;;5.71;91.49
16255;BME280;8235;52.198;9.904;2023-04-08T02:19:24;101468.06;;;5.71;91.53
16255;BME280;8235;52.198;9.904;2023-04-08T02:21:57;101470.69;;;5.71;91.80
16255;BME280;8235;52.198;9.904;2023-04-08T02:24:26;101465.41;;;5.71;92.00
16255;BME280;8235;52.198;9.904;2023-04-08T02:26:55;101470.56;;;5.74;92.14
16255;BME280;8235;52.198;9.904;2023-04-08T02:29:22;101469.72;;;5.73;92.44
16255;BME280;8235;52.198;9.904;2023-04-08T02:31:50;101467.94;;;5.74;92.39
16255;BME280;8235;52.198;9.904;2023-04-08T02:34:19;101467.88;;;5.75;92.69
16255;BME280;8235;52.198;9.904;2023-04-08T02:36:48;101468.78;;;5.74;92.42
16255;BME280;8235;52.198;9.904;2023-04-08T02:39:15;101464.50;;;5.72;92.62
16255;BME280;8235;52.198;9.904;2023-04-08T02:41:42;101462.81;;;5.69;92.84
16255;BME280;8235;52.198;9.904;2023-04-08T02:44:08;101465.41;;;5.71;92.59
16255;BME280;8235;52.198;9.904;2023-04-08T02:46:35;101468.09;;;5.69;92.62
16255;BME280;8235;52.198;9.904;2023-04-08T02:49:01;101475.97;;;5.71;92.85
16255;BME280;8235;52.198;9.904;2023-04-08T02:51:28;101480.44;;;5.69;93.09
16255;BME280;8235;52.198;9.904;2023-04-08T02:53:56;101484.00;;;5.68;92.92
16255;BME280;8235;52.198;9.904;2023-04-08T02:56:22;101484.84;;;5.68;92.96
16255;BME280;8235;52.198;9.904;2023-04-08T02:58:48;101476.06;;;5.68;92.97
16255;BME280;8235;52.198;9.904;2023-04-08T03:01:16;101489.28;;;5.68;93.27
16255;BME280;8235;52.198;9.904;2023-04-08T03:03:42;101489.31;;;5.66;93.25
16255;BME280;8235;52.198;9.904;2023-04-08T03:06:09;101492.84;;;5.67;93.13
16255;BME280;8235;52.198;9.904;2023-04-08T03:08:35;101490.19;;;5.67;93.14
16255;BME280;8235;52.198;9.904;2023-04-08T03:11:03;101492.84;;;5.67;93.34
16255;BME280;8235;52.198;9.904;2023-04-08T03:13:29;101499.00;;;5.67;93.51
16255;BME280;8235;52.198;9.904;2023-04-08T03:15:56;101490.19;;;5.67;93.53
16255;BME280;8235;52.198;9.904;2023-04-08T03:18:23;101492.78;;;5.68;93.62
16255;BME280;8235;52.198;9.904;2023-04-08T03:20:50;101498.94;;;5.69;93.51
16255;BME280;8235;52.198;9.904;2023-04-08T03:23:16;101494.56;;;5.68;93.65
16255;BME280;8235;52.198;9.904;2023-04-08T03:25:43;101500.75;;;5.67;93.79
16255;BME280;8235;52.198;9.904;2023-04-08T03:28:10;101501.66;;;5.66;93.88
16255;BME280;8235;52.198;9.904;2023-04-08T03:30:37;101506.97;;;5.66;93.57
16255;BME280;8235;52.198;9.904;2023-04-08T03:33:03;101506.97;;;5.66;93.81
16255;BME280;8235;52.198;9.904;2023-04-08T03:35:32;101512.25;;;5.66;93.73
16255;BME280;8235;52.198;9.904;2023-04-08T03:37:58;101501.66;;;5.66;94.04
16255;BME280;8235;52.198;9.904;2023-04-08T03:40:25;101501.66;;;5.66;94.03
16255;BME280;8235;52.198;9.904;2023-04-08T03:42:51;101498.16;;;5.65;94.15
16255;BME280;8235;52.198;9.904;2023-04-08T03:45:19;101499.94;;;5.65;94.05
16255;BME280;8235;52.198;9.904;2023-04-08T03:47:46;101514.88;;;5.66;94.06
16255;BME280;8235;52.198;9.904;2023-04-08T03:50:12;101506.09;;;5.65;94.33
16255;BME280;8235;52.198;9.904;2023-04-08T03:52:39;101500.88;;;5.62;94.22
16255;BME280;8235;52.198;9.904;2023-04-08T03:55:05;101505.34;;;5.60;94.25
16255;BME280;8235;52.198;9.904;2023-04-08T03:57:32;101498.31;;;5.59;94.24
16255;BME280;8235;52.198;9.904;2023-04-08T03:59:58;101500.97;;;5.59;94.52
16255;BME280;8235;52.198;9.904;2023-04-08T04:02:26;101498.41;;;5.56;94.50
16255;BME280;8235;52.198;9.904;2023-04-08T04:04:53;101507.22;;;5.56;94.58
16255;BME280;8235;52.198;9.904;2023-04-08T04:07:19;101510.75;;;5.55;94.69
16255;BME280;8235;52.198;9.904;2023-04-08T04:09:46;101506.41;;;5.54;95.10
16255;BME280;8235;52.198;9.904;2023-04-08T04:12:12;101513.41;;;5.55;95.13
16255;BME280;8235;52.198;9.904;2023-04-08T04:14:39;101513.41;;;5.55;95.34
16255;BME280;8235;52.198;9.904;2023-04-08T04:17:05;101518.75;;;5.54;95.23
16255;BME280;8235;52.198;9.904;2023-04-08T04:19:33;101509.97;;;5.53;95.51
16255;BME280;8235;52.198;9.904;2023-04-08T04:21:59;101514.38;;;5.53;95.44
16255;BME280;8235;52.198;9.904;2023-04-08T04:24:26;101521.44;;;5.52;95.64
16255;BME280;8235;52.198;9.904;2023-04-08T04:26:52;101512.66;;;5.52;95.84
16255;BME280;8235;52.198;9.904;2023-04-08T04:29:19;101520.63;;;5.50;96.33
16255;BME280;8235;52.198;9.904;2023-04-08T04:31:45;101522.38;;;5.50;95.95
16255;BME280;8235;52.198;9.904;2023-04-08T04:34:12;101530.31;;;5.50;96.10
16255;BME280;8235;52.198;9.904;2023-04-08T04:36:40;101534.78;;;5.48;96.54
16255;BME280;8235;52.198;9.904;2023-04-08T04:39:06;101530.41;;;5.47;96.59
16255;BME280;8235;52.198;9.904;2023-04-08T04:41:32;101540.97;;;5.47;96.96
16255;BME280;8235;52.198;9.904;2023-04-08T04:44:03;101541.88;;;5.46;97.32
16255;BME280;8235;52.198;9.904;2023-04-08T04:46:29;101542.78;;;5.45;97.25
16255;BME280;8235;52.198;9.904;2023-04-08T04:48:56;101538.41;;;5.44;97.20
16255;BME280;8235;52.198;9.904;2023-04-08T04:51:22;101543.69;;;5.44;97.67
16255;BME280;8235;52.198;9.904;2023-04-08T04:53:50;101549.84;;;5.44;97.77
16255;BME280;8235;52.198;9.904;2023-04-08T04:56:16;101552.47;;;5.44;97.77
16255;BME280;8235;52.198;9.904;2023-04-08T04:58:43;101557.75;;;5.44;97.65
16255;BME280;8235;52.198;9.904;2023-04-08T05:01:10;101556.03;;;5.43;98.13
16255;BME280;8235;52.198;9.904;2023-04-08T05:03:36;101563.94;;;5.43;98.29
16255;BME280;8235;52.198;9.904;2023-04-08T05:06:03;101568.34;;;5.44;98.44
16255;BME280;8235;52.198;9.904;2023-04-08T05:08:29;101567.50;;;5.42;98.43
16255;BME280;8235;52.198;9.904;2023-04-08T05:10:57;101570.16;;;5.42;98.80
16255;BME280;8235;52.198;9.904;2023-04-08T05:13:26;101567.53;;;5.41;98.62
16255;BME280;8235;52.198;9.904;2023-04-08T05:15:52;101563.13;;;5.41;98.94
16255;BME280;8235;52.198;9.904;2023-04-08T05:18:19;101568.50;;;5.38;99.25
16255;BME280;8235;52.198;9.904;2023-04-08T05:20:45;101570.34;;;5.36;99.67
16255;BME280;8235;52.198;9.904;2023-04-08T05:23:12;101566.81;;;5.36;99.46
16255;BME280;8235;52.198;9.904;2023-04-08T05:25:38;101571.25;;;5.35;100.00
16255;BME280;8235;52.198;9.904;2023-04-08T05:28:06;101568.59;;;5.35;100.00
16255;BME280;8235;52.198;9.904;2023-04-08T05:30:33;101573.88;;;5.35;100.00
16255;BME280;8235;52.198;9.904;2023-04-08T05:32:59;101571.25;;;5.35;100.00
16255;BME280;8235;52.198;9.904;2023-04-08T05:35:26;101575.66;;;5.35;100.00
16255;BME280;8235;52.198;9.904;2023-04-08T05:37:53;101573.88;;;5.35;100.00
16255;BME280;8235;52.198;9.904;2023-04-08T05:40:19;101580.91;;;5.36;100.00
16255;BME280;8235;52.198;9.904;2023-04-08T05:42:46;101578.25;;;5.36;100.00
16255;BME280;8235;52.198;9.904;2023-04-08T05:45:14;101576.50;;;5.37;100.00
16255;BME280;8235;52.198;9.904;2023-04-08T05:47:40;101581.69;;;5.38;100.00
16255;BME280;8235;52.198;9.904;2023-04-08T05:50:07;101583.44;;;5.39;100.00
16255;BME280;8235;52.198;9.904;2023-04-08T05:52:34;101587.84;;;5.39;100.00
16255;BME280;8235;52.198;9.904;2023-04-08T05:55:00;101587.91;;;5.37;100.00
16255;BME280;8235;52.198;9.904;2023-04-08T05:57:27;101593.25;;;5.36;100.00
16255;BME280;8235;52.198;9.904;2023-04-08T05:59:53;101583.53;;;5.36;100.00
16255;BME280;8235;52.198;9.904;2023-04-08T06:02:21;101596.69;;;5.38;100.00
16255;BME280;8235;52.198;9.904;2023-04-08T06:04:48;101588.72;;;5.39;100.00
16255;BME280;8235;52.198;9.904;2023-04-08T06:07:14;101597.47;;;5.41;100.00
16255;BME280;8235;52.198;9.904;2023-04-08T06:09:40;101594.88;;;5.40;100.00
16255;BME280;8235;52.198;9.904;2023-04-08T06:12:07;101594.88;;;5.40;100.00
16255;BME280;8235;52.198;9.904;2023-04-08T06:14:33;101594.88;;;5.40;100.00
16255;BME280;8235;52.198;9.904;2023-04-08T06:17:00;101600.13;;;5.41;100.00
16255;BME280;8235;52.198;9.904;2023-04-08T06:19:28;101599.22;;;5.42;100.00
16255;BME280;8235;52.198;9.904;2023-04-08T06:21:54;101609.72;;;5.44;100.00
16255;BME280;8235;52.198;9.904;2023-04-08T06:24:23;101608.03;;;5.41;100.00
16255;BME280;8235;52.198;9.904;2023-04-08T06:26:50;101606.22;;;5.43;100.00
16255;BME280;8235;52.198;9.904;2023-04-08T06:29:17;101608.81;;;5.45;100.00
16255;BME280;8235;52.198;9.904;2023-04-08T06:31:44;101611.41;;;5.48;100.00
16255;BME280;8235;52.198;9.904;2023-04-08T06:34:10;101614.81;;;5.51;100.00
16255;BME280;8235;52.198;9.904;2023-04-08T06:36:38;101624.44;;;5.54;100.00
16255;BME280;8235;52.198;9.904;2023-04-08T06:39:05;101620.03;;;5.54;100.00
16255;BME280;8235;52.198;9.904;2023-04-08T06:41:31;101620.03;;;5.54;100.00
16255;BME280;8235;52.198;9.904;2023-04-08T06:43:58;101621.69;;;5.57;100.00
16255;BME280;8235;52.198;9.904;2023-04-08T06:46:25;101633.09;;;5.59;100.00
16255;BME280;8235;52.198;9.904;2023-04-08T06:48:51;101632.19;;;5.60;100.00
16255;BME280;8235;52.198;9.904;2023-04-08T06:51:17;101635.69;;;5.61;100.00
16255;BME280;8235;52.198;9.904;2023-04-08T06:53:45;101638.31;;;5.62;100.00
16255;BME280;8235;52.198;9.904;2023-04-08T06:56:12;101637.34;;;5.65;100.00
16255;BME280;8235;52.198;9.904;2023-04-08T06:58:38;101640.00;;;5.65;100.00
16255;BME280;8235;52.198;9.904;2023-04-08T07:01:05;101640.00;;;5.65;100.00
16255;BME280;8235;52.198;9.904;2023-04-08T07:03:31;101644.47;;;5.63;100.00
16255;BME280;8235;52.198;9.904;2023-04-08T07:05:58;101649.69;;;5.64;100.00
16255;BME280;8235;52.198;9.904;2023-04-08T07:08:24;101646.16;;;5.65;100.00
16255;BME280;8235;52.198;9.904;2023-04-08T07:10:52;101652.28;;;5.67;100.00
16255;BME280;8235;52.198;9.904;2023-04-08T07:13:19;101652.22;;;5.69;100.00
16255;BME280;8235;52.198;9.904;2023-04-08T07:15:45;101657.50;;;5.69;100.00
16255;BME280;8235;52.198;9.904;2023-04-08T07:18:12;101653.06;;;5.71;100.00
16255;BME280;8235;52.198;9.904;2023-04-08T07:20:38;101651.31;;;5.70;100.00
16255;BME280;8235;52.198;9.904;2023-04-08T07:23:06;101647.81;;;5.69;100.00
16255;BME280;8235;52.198;9.904;2023-04-08T07:25:33;101656.56;;;5.71;100.00
16255;BME280;8235;52.198;9.904;2023-04-08T07:28:01;101653.06;;;5.71;100.00
16255;BME280;8235;52.198;9.904;2023-04-08T07:30:27;101656.56;;;5.71;100.00
16255;BME280;8235;52.198;9.904;2023-04-08T07:32:54;101660.09;;;5.72;100.00
16255;BME280;8235;52.198;9.904;2023-04-08T07:35:22;101660.09;;;5.72;100.00
16255;BME280;8235;52.198;9.904;2023-04-08T07:37:49;101668.81;;;5.74;100.00
16255;BME280;8235;52.198;9.904;2023-04-08T07:40:17;101671.38;;;5.77;100.00
16255;BME280;8235;52.198;9.904;2023-04-08T07:42:43;101664.28;;;5.79;100.00
16255;BME280;8235;52.198;9.904;2023-04-08T07:45:12;101673.94;;;5.80;100.00
16255;BME280;8235;52.198;9.904;2023-04-08T07:47:38;101673.03;;;5.81;100.00
16255;BME280;8235;52.198;9.904;2023-04-08T07:50:06;101667.66;;;5.84;100.00
16255;BME280;8235;52.198;9.904;2023-04-08T07:52:32;101669.38;;;5.86;100.00
16255;BME280;8235;52.198;9.904;2023-04-08T07:54:59;101672.88;;;5.88;100.00
16255;BME280;8235;52.198;9.904;2023-04-08T07:57:26;101675.47;;;5.90;100.00
16255;BME280;8235;52.198;9.904;2023-04-08T07:59:52;101678.91;;;5.92;100.00
16255;BME280;8235;52.198;9.904;2023-04-08T08:02:20;101679.78;;;5.92;100.00
16255;BME280;8235;52.198;9.904;2023-04-08T08:04:47;101674.38;;;5.97;100.00
16255;BME280;8235;52.198;9.904;2023-04-08T08:07:13;101676.06;;;6.00;100.00
16255;BME280;8235;52.198;9.904;2023-04-08T08:09:40;101681.28;;;6.03;100.00
16255;BME280;8235;52.198;9.904;2023-04-08T08:12:06;101697.06;;;6.06;100.00
16255;BME280;8235;52.198;9.904;2023-04-08T08:14:33;101695.25;;;6.08;100.00
16255;BME280;8235;52.198;9.904;2023-04-08T08:16:59;101700.41;;;6.11;100.00
16255;BME280;8235;52.198;9.904;2023-04-08T08:19:27;101692.41;;;6.14;100.00
16255;BME280;8235;52.198;9.904;2023-04-08T08:21:54;101698.53;;;6.16;100.00
16255;BME280;8235;52.198;9.904;2023-04-08T08:24:21;101697.63;;;6.17;100.00
16255;BME280;8235;52.198;9.904;2023-04-08T08:26:47;101708.16;;;6.18;100.00
16255;BME280;8235;52.198;9.904;2023-04-08T08:29:14;101706.41;;;6.17;100.00
16255;BME280;8235;52.198;9.904;2023-04-08T08:31:40;101711.72;;;6.17;100.00
16255;BME280;8235;52.198;9.904;2023-04-08T08:34:07;101702.91;;;6.17;100.00
16255;BME280;8235;52.198;9.904;2023-04-08T08:36:34;101713.44;;;6.18;100.00
16255;BME280;8235;52.198;9.904;2023-04-08T08:39:01;101713.44;;;6.18;100.00
16255;BME280;8235;52.198;9.904;2023-04-08T08:41:34;101722.25;;;6.19;100.00
16255;BME280;8235;52.198;9.904;2023-04-08T08:44:04;101724.81;;;6.22;100.00
16255;BME280;8235;52.198;9.904;2023-04-08T08:46:34;101718.56;;;6.24;100.00
16255;BME280;8235;52.198;9.904;2023-04-08T08:49:01;101714.00;;;6.30;100.00
16255;BME280;8235;52.198;9.904;2023-04-08T08:51:31;101716.56;;;6.33;100.00
16255;BME280;8235;52.198;9.904;2023-04-08T08:54:02;101714.75;;;6.35;100.00
16255;BME280;8235;52.198;9.904;2023-04-08T08:56:31;101712.06;;;6.36;100.00
16255;BME280;8235;52.198;9.904;2023-04-08T08:58:58;101732.31;;;6.37;100.00
16255;BME280;8235;52.198;9.904;2023-04-08T09:01:32;101733.13;;;6.39;100.00
16255;BME280;8235;52.198;9.904;2023-04-08T09:04:10;101730.44;;;6.41;100.00
16255;BME280;8235;52.198;9.904;2023-04-08T09:06:40;101735.69;;;6.42;100.00
16255;BME280;8235;52.198;9.904;2023-04-08T09:09:09;101727.75;;;6.42;100.00
16255;BME280;8235;52.198;9.904;2023-04-08T09:11:36;101734.78;;;6.43;100.00
16255;BME280;8235;52.198;9.904;2023-04-08T09:14:03;101737.44;;;6.43;100.00
16255;BME280;8235;52.198;9.904;2023-04-08T09:16:30;101739.09;;;6.46;100.00
16255;BME280;8235;52.198;9.904;2023-04-08T09:19:07;101739.00;;;6.49;100.00
16255;BME280;8235;52.198;9.904;2023-04-08T09:21:34;101738.06;;;6.51;99.62
16255;BME280;8235;52.198;9.904;2023-04-08T09:24:00;101748.66;;;6.51;99.80
16255;BME280;8235;52.198;9.904;2023-04-08T09:26:28;101755.69;;;6.52;100.00
16255;BME280;8235;52.198;9.904;2023-04-08T09:29:00;101760.94;;;6.54;99.53
16255;BME280;8235;52.198;9.904;2023-04-08T09:31:28;101755.59;;;6.55;99.53
16255;BME280;8235;52.198;9.904;2023-04-08T09:33:56;101758.16;;;6.58;99.55
16255;BME280;8235;52.198;9.904;2023-04-08T09:36:23;101765.22;;;6.58;99.35
16255;BME280;8235;52.198;9.904;2023-04-08T09:38:52;101756.47;;;6.56;99.22
16255;BME280;8235;52.198;9.904;2023-04-08T09:41:19;101767.09;;;6.54;99.12
16255;BME280;8235;52.198;9.904;2023-04-08T09:43:52;101769.75;;;6.54;98.57
16255;BME280;8235;52.198;9.904;2023-04-08T09:46:25;101780.31;;;6.54;98.83
16255;BME280;8235;52.198;9.904;2023-04-08T09:48:56;101771.44;;;6.57;98.91
16255;BME280;8235;52.198;9.904;2023-04-08T09:51:25;101774.03;;;6.58;99.14
16255;BME280;8235;52.198;9.904;2023-04-08T09:53:57;101781.03;;;6.61;98.72
16255;BME280;8235;52.198;9.904;2023-04-08T09:56:29;101767.69;;;6.64;99.04
16255;BME280;8235;52.198;9.904;2023-04-08T09:59:02;101770.25;;;6.67;99.34
16255;BME280;8235;52.198;9.904;2023-04-08T10:01:37;101767.47;;;6.72;98.81
16255;BME280;8235;52.198;9.904;2023-04-08T10:04:04;101764.69;;;6.76;99.22
16255;BME280;8235;52.198;9.904;2023-04-08T10:06:32;101764.59;;;6.79;99.41
16255;BME280;8235;52.198;9.904;2023-04-08T10:09:00;101765.38;;;6.81;99.18
16255;BME280;8235;52.198;9.904;2023-04-08T10:11:29;101773.28;;;6.83;98.49
16255;BME280;8235;52.198;9.904;2023-04-08T10:13:55;101777.72;;;6.82;98.52
16255;BME280;8235;52.198;9.904;2023-04-08T10:16:24;101775.00;;;6.85;98.94
16255;BME280;8235;52.198;9.904;2023-04-08T10:18:51;101774.03;;;6.88;98.84
16255;BME280;8235;52.198;9.904;2023-04-08T10:21:36;101785.41;;;6.91;98.42
16255;BME280;8235;52.198;9.904;2023-04-08T10:24:09;101783.53;;;6.95;98.22
16255;BME280;8235;52.198;9.904;2023-04-08T10:26:38;101784.44;;;6.94;98.23
16255;BME280;8235;52.198;9.904;2023-04-08T10:29:29;101777.38;;;6.94;98.24
16255;BME280;8235;52.198;9.904;2023-04-08T10:31:57;101773.84;;;6.94;97.96
16255;BME280;8235;52.198;9.904;2023-04-08T10:34:26;101768.50;;;6.95;98.11
16255;BME280;8235;52.198;9.904;2023-04-08T10:36:54;101768.50;;;6.95;97.89
16255;BME280;8235;52.198;9.904;2023-04-08T10:39:24;101765.81;;;6.97;97.65
16255;BME280;8235;52.198;9.904;2023-04-08T10:41:51;101770.22;;;6.98;97.36
16255;BME280;8235;52.198;9.904;2023-04-08T10:44:19;101773.72;;;6.99;97.56
16255;BME280;8235;52.198;9.904;2023-04-08T10:46:47;101778.06;;;7.00;97.21
16255;BME280;8235;52.198;9.904;2023-04-08T10:49:16;101769.22;;;7.01;96.98
16255;BME280;8235;52.198;9.904;2023-04-08T10:51:43;101781.47;;;7.05;97.17
16255;BME280;8235;52.198;9.904;2023-04-08T10:54:11;101780.56;;;7.06;97.30
16255;BME280;8235;52.198;9.904;2023-04-08T10:56:43;101779.69;;;7.05;96.89
16255;BME280;8235;52.198;9.904;2023-04-08T10:59:12;101778.78;;;7.06;97.05
16255;BME280;8235;52.198;9.904;2023-04-08T11:01:40;101778.78;;;7.06;97.16
16255;BME280;8235;52.198;9.904;2023-04-08T11:04:13;101784.06;;;7.06;97.28
16255;BME280;8235;52.198;9.904;2023-04-08T11:06:42;101784.03;;;7.08;96.85
16255;BME280;8235;52.198;9.904;2023-04-08T11:09:09;101784.88;;;7.08;97.10
16255;BME280;8235;52.198;9.904;2023-04-08T11:11:36;101789.22;;;7.11;97.02
16255;BME280;8235;52.198;9.904;2023-04-08T11:14:03;101790.91;;;7.13;96.61
16255;BME280;8235;52.198;9.904;2023-04-08T11:16:30;101793.47;;;7.16;96.71
16255;BME280;8235;52.198;9.904;2023-04-08T11:18:56;101797.78;;;7.19;96.89
16255;BME280;8235;52.198;9.904;2023-04-08T11:21:24;101794.22;;;7.20;96.79
16255;BME280;8235;52.198;9.904;2023-04-08T11:23:57;101790.66;;;7.21;96.62
16255;BME280;8235;52.198;9.904;2023-04-08T11:26:24;101795.06;;;7.22;97.02
16255;BME280;8235;52.198;9.904;2023-04-08T11:28:53;101787.97;;;7.22;96.69
16255;BME280;8235;52.198;9.904;2023-04-08T11:31:20;101800.22;;;7.26;96.61
16255;BME280;8235;52.198;9.904;2023-04-08T11:33:48;101795.78;;;7.27;96.65
16255;BME280;8235;52.198;9.904;2023-04-08T11:36:16;101801.91;;;7.29;96.67
16255;BME280;8235;52.198;9.904;2023-04-08T11:38:43;101810.69;;;7.31;95.95
16255;BME280;8235;52.198;9.904;2023-04-08T11:41:13;101802.72;;;7.31;96.45
16255;BME280;8235;52.198;9.904;2023-04-08T11:43:50;101799.16;;;7.32;96.16
16255;BME280;8235;52.198;9.904;2023-04-08T11:46:17;101804.47;;;7.32;95.99
16255;BME280;8235;52.198;9.904;2023-04-08T11:48:56;101807.94;;;7.34;95.76
16255;BME280;8235;52.198;9.904;2023-04-08T11:51:23;101806.13;;;7.35;96.30
16255;BME280;8235;52.198;9.904;2023-04-08T11:53:50;101796.31;;;7.38;96.85
16255;BME280;8235;52.198;9.904;2023-04-08T11:56:20;101802.41;;;7.40;96.78
16255;BME280;8235;52.198;9.904;2023-04-08T11:58:48;101802.38;;;7.42;96.95
16255;BME280;8235;52.198;9.904;2023-04-08T12:01:14;101808.44;;;7.45;97.21
16255;BME280;8235;52.198;9.904;2023-04-08T12:03:53;101805.72;;;7.48;96.95
16255;BME280;8235;52.198;9.904;2023-04-08T12:06:19;101809.28;;;7.47;96.46
16255;BME280;8235;52.198;9.904;2023-04-08T12:08:46;101805.75;;;7.47;96.05
16255;BME280;8235;52.198;9.904;2023-04-08T12:11:12;101805.72;;;7.48;96.56
16255;BME280;8235;52.198;9.904;2023-04-08T12:13:41;101808.34;;;7.48;96.77
16255;BME280;8235;52.198;9.904;2023-04-08T12:16:08;101809.22;;;7.49;95.93
16255;BME280;8235;52.198;9.904;2023-04-08T12:18:34;101808.34;;;7.48;95.89
16255;BME280;8235;52.198;9.904;2023-04-08T12:21:00;101814.56;;;7.47;96.19
16255;BME280;8235;52.198;9.904;2023-04-08T12:23:27;101809.28;;;7.47;95.90
16255;BME280;8235;52.198;9.904;2023-04-08T12:25:53;101810.16;;;7.48;95.70
16255;BME280;8235;52.198;9.904;2023-04-08T12:28:20;101808.34;;;7.48;96.25
16255;BME280;8235;52.198;9.904;2023-04-08T12:30:48;101807.50;;;7.48;96.01
16255;BME280;8235;52.198;9.904;2023-04-08T12:33:15;101812.75;;;7.49;95.99
16255;BME280;8235;52.198;9.904;2023-04-08T12:35:41;101811.94;;;7.47;95.67
16255;BME280;8235;52.198;9.904;2023-04-08T12:38:08;101811.09;;;7.45;95.80
16255;BME280;8235;52.198;9.904;2023-04-08T12:40:35;101813.72;;;7.47;96.16
16255;BME280;8235;52.198;9.904;2023-04-08T12:43:02;101810.19;;;7.46;95.99
16255;BME280;8235;52.198;9.904;2023-04-08T12:45:28;101810.22;;;7.45;96.19
16255;BME280;8235;52.198;9.904;2023-04-08T12:47:56;101800.50;;;7.45;95.76
16255;BME280;8235;52.198;9.904;2023-04-08T12:50:23;101801.31;;;7.47;96.07
16255;BME280;8235;52.198;9.904;2023-04-08T12:52:49;101808.31;;;7.50;95.91
16255;BME280;8235;52.198;9.904;2023-04-08T12:55:16;101791.44;;;7.52;96.55
16255;BME280;8235;52.198;9.904;2023-04-08T12:57:43;101798.34;;;7.56;96.25
16255;BME280;8235;52.198;9.904;2023-04-08T13:00:10;101805.31;;;7.60;96.49
16255;BME280;8235;52.198;9.904;2023-04-08T13:02:37;101799.00;;;7.64;96.86
16255;BME280;8235;52.198;9.904;2023-04-08T13:05:08;101797.94;;;7.70;96.32
16255;BME280;8235;52.198;9.904;2023-04-08T13:07:34;101794.22;;;7.74;96.56
16255;BME280;8235;52.198;9.904;2023-04-08T13:10:01;101800.25;;;7.79;96.14